Time;durP1;ratioP1;P1;durP2;ratioP2;P2;SDS_P1;SDS_P2;PMS_P1;PMS_P2;Temp;Humidity;BMP_temperature;BMP_pressure;BME280_temperature;BME280_humidity;BME280_pressure;Samples;Min_cycle;Max_cycle;Signal;HPM_P1;HPM_P2
2022/08/22 00:01:09;;;;;;;3.35;1.42;;;17.00;99.90;;;;;;6220081;23;20465;-88
2022/08/22 00:04:02;;;;;;;3.28;1.55;;;17.00;99.90;;;;;;6245280;23;20024;-87
2022/08/22 00:06:48;;;;;;;3.25;1.40;;;17.00;99.90;;;;;;6219758;23;20016;-88
2022/08/22 00:09:44;;;;;;;3.78;1.50;;;17.00;99.90;;;;;;6245113;23;20024;-88
2022/08/22 00:12:31;;;;;;;3.90;1.75;;;16.90;99.90;;;;;;6245165;23;20062;-87
2022/08/22 00:15:15;;;;;;;4.93;1.60;;;16.90;99.90;;;;;;6219613;23;20078;-87
2022/08/22 00:18:07;;;;;;;3.65;1.98;;;16.90;99.90;;;;;;6245321;23;20062;-86
2022/08/22 00:20:51;;;;;;;4.60;2.00;;;17.00;99.90;;;;;;6245026;23;20086;-89
2022/08/22 00:23:21;;;;;;;4.15;1.77;;;16.90;99.90;;;;;;6219639;23;20058;-87
2022/08/22 00:26:15;;;;;;;5.40;1.90;;;17.00;99.90;;;;;;6244533;23;20020;-88
2022/08/22 00:28:49;;;;;;;4.53;1.83;;;16.90;99.90;;;;;;6244985;23;20353;-87
2022/08/22 00:31:28;;;;;;;3.25;1.77;;;16.90;99.90;;;;;;6244732;23;20099;-87
2022/08/22 00:34:28;;;;;;;4.13;1.83;;;16.80;99.90;;;;;;6245001;23;20020;-88
2022/08/22 00:37:29;;;;;;;4.57;1.80;;;16.80;99.90;;;;;;6246519;23;20110;-89
2022/08/22 00:40:26;;;;;;;5.07;2.00;;;16.80;99.90;;;;;;6240109;23;20078;-88
2022/08/22 00:43:25;;;;;;;3.33;1.70;;;16.80;99.90;;;;;;6245060;23;20020;-86
2022/08/22 00:45:57;;;;;;;4.22;1.80;;;16.90;99.90;;;;;;6244697;23;20020;-90
2022/08/22 00:48:47;;;;;;;6.47;2.40;;;16.90;99.90;;;;;;6244488;23;20453;-88
2022/08/22 00:51:22;;;;;;;4.55;2.03;;;16.90;99.90;;;;;;6219215;23;20020;-85
2022/08/22 00:54:15;;;;;;;7.00;2.20;;;16.90;99.90;;;;;;6244555;23;20031;-88
2022/08/22 00:56:53;;;;;;;5.22;1.90;;;16.90;99.90;;;;;;6245293;23;20078;-86
2022/08/22 00:59:34;;;;;;;6.00;1.83;;;16.90;99.90;;;;;;6244703;23;20024;-87
2022/08/22 01:02:25;;;;;;;5.10;2.03;;;16.90;99.90;;;;;;6244470;23;20022;-87
2022/08/22 01:05:09;;;;;;;5.93;1.90;;;16.90;99.90;;;;;;6244580;23;20071;-86
2022/08/22 01:08:12;;;;;;;3.83;2.08;;;16.90;99.90;;;;;;6244441;23;20024;-86
2022/08/22 01:10:51;;;;;;;4.45;2.17;;;16.90;99.90;;;;;;6244489;23;20034;-85
2022/08/22 01:13:30;;;;;;;6.45;2.30;;;16.90;99.90;;;;;;6219199;23;20028;-87
2022/08/22 01:16:08;;;;;;;4.97;1.75;;;16.80;99.90;;;;;;6244801;23;20349;-86
2022/08/22 01:18:49;;;;;;;4.53;1.63;;;16.80;99.90;;;;;;6246109;23;20095;-89
2022/08/22 01:21:33;;;;;;;3.75;1.80;;;16.70;99.90;;;;;;6251914;23;20024;-87
2022/08/22 01:24:27;;;;;;;3.28;1.77;;;16.70;99.90;;;;;;6247996;23;20020;-86
2022/08/22 01:26:52;;;;;;;3.83;1.50;;;16.70;99.90;;;;;;6244427;23;20370;-88
2022/08/22 01:29:54;;;;;;;4.28;2.03;;;16.70;99.90;;;;;;6245868;23;20098;-85
2022/08/22 01:33:00;;;;;;;4.53;1.85;;;16.60;99.90;;;;;;6244287;23;20034;-87
2022/08/22 01:36:02;;;;;;;3.15;1.63;;;16.60;99.90;;;;;;6246046;23;20406;-88
2022/08/22 01:38:56;;;;;;;3.85;1.58;;;16.50;99.90;;;;;;6244368;23;20023;-87
2022/08/22 01:42:12;;;;;;;2.97;1.35;;;16.50;99.90;;;;;;6245791;23;20027;-87
2022/08/22 01:45:13;;;;;;;2.85;1.38;;;16.50;99.90;;;;;;6194179;23;20039;-86
2022/08/22 01:47:53;;;;;;;3.50;1.67;;;16.40;99.90;;;;;;6244497;23;20496;-89
2022/08/22 01:50:38;;;;;;;3.83;1.95;;;16.30;99.90;;;;;;6219002;23;20027;-87
2022/08/22 01:53:06;;;;;;;4.93;2.22;;;16.40;99.90;;;;;;6244116;23;20353;-88
2022/08/22 01:56:08;;;;;;;4.32;1.85;;;16.40;99.90;;;;;;6245811;23;20020;-86
2022/08/22 01:58:41;;;;;;;3.90;1.80;;;16.30;99.90;;;;;;6250026;23;20020;-86
2022/08/22 02:01:13;;;;;;;3.95;1.77;;;16.30;99.90;;;;;;6247702;22;20028;-86
2022/08/22 02:04:02;;;;;;;4.78;2.38;;;16.30;99.90;;;;;;6218939;23;20020;-88
2022/08/22 02:06:43;;;;;;;5.60;2.20;;;16.30;99.90;;;;;;6246288;23;20016;-86
2022/08/22 02:09:33;;;;;;;4.05;2.20;;;16.30;99.90;;;;;;6246490;23;20020;-87
2022/08/22 02:12:14;;;;;;;5.15;2.17;;;16.30;99.90;;;;;;6245888;23;20097;-86
2022/08/22 02:14:49;;;;;;;5.32;2.40;;;16.30;99.90;;;;;;6220852;23;20081;-85
2022/08/22 02:17:41;;;;;;;5.97;2.40;;;16.30;99.90;;;;;;6246293;23;20016;-87
2022/08/22 02:20:31;;;;;;;3.88;1.80;;;16.30;99.90;;;;;;6175101;23;20035;-87
2022/08/22 02:23:07;;;;;;;6.43;2.60;;;16.40;99.90;;;;;;6220609;23;20095;-85
2022/08/22 02:25:49;;;;;;;4.28;1.98;;;16.30;99.90;;;;;;6220797;23;20026;-88
2022/08/22 02:28:37;;;;;;;8.25;3.95;;;16.30;99.90;;;;;;6247766;22;20073;-87
2022/08/22 02:31:45;;;;;;;5.03;2.45;;;16.30;99.90;;;;;;6246079;23;20016;-87
2022/08/22 02:34:37;;;;;;;5.78;2.55;;;16.30;99.90;;;;;;6245309;23;20067;-85
2022/08/22 02:37:41;;;;;;;6.18;2.63;;;16.20;99.90;;;;;;6192873;23;20024;-86
2022/08/22 02:40:29;;;;;;;6.28;2.78;;;16.30;99.90;;;;;;6185615;23;20091;-87
2022/08/22 02:43:25;;;;;;;5.57;2.30;;;16.20;99.90;;;;;;6245670;23;20020;-86
2022/08/22 02:46:12;;;;;;;7.03;2.45;;;16.30;99.90;;;;;;6247170;23;20020;-86
2022/08/22 02:49:12;;;;;;;7.18;3.53;;;16.30;99.90;;;;;;6220496;23;20035;-86
2022/08/22 02:52:05;;;;;;;4.57;2.47;;;16.30;99.90;;;;;;6240880;23;20327;-90
2022/08/22 02:54:58;;;;;;;5.32;2.63;;;16.30;99.90;;;;;;6245908;23;20457;-86
2022/08/22 02:57:37;;;;;;;4.75;2.58;;;16.30;99.90;;;;;;6245784;23;20396;-87
2022/08/22 03:00:29;;;;;;;5.63;2.50;;;16.20;99.90;;;;;;6245438;23;20095;-85
2022/08/22 03:03:18;;;;;;;5.78;3.03;;;16.20;99.90;;;;;;6220532;23;20020;-87
2022/08/22 03:05:43;;;;;;;6.97;2.45;;;16.20;99.90;;;;;;6247093;23;20020;-86
2022/08/22 03:08:27;;;;;;;5.15;2.47;;;16.20;99.90;;;;;;6246904;23;20047;-87
2022/08/22 03:11:13;;;;;;;4.40;2.22;;;16.10;99.90;;;;;;6247217;23;20031;-85
2022/08/22 03:13:51;;;;;;;4.90;2.35;;;16.10;99.90;;;;;;6247276;23;20091;-88
2022/08/22 03:16:35;;;;;;;4.72;2.67;;;16.10;99.90;;;;;;6246599;23;20016;-86
2022/08/22 03:19:13;;;;;;;4.85;2.83;;;16.00;99.90;;;;;;6219006;23;20022;-87
2022/08/22 03:21:50;;;;;;;5.45;2.55;;;16.00;99.90;;;;;;6247247;23;20063;-86
2022/08/22 03:24:25;;;;;;;4.82;2.47;;;16.00;99.90;;;;;;6219629;23;20016;-85
2022/08/22 03:27:09;;;;;;;5.28;2.47;;;15.90;99.90;;;;;;6218461;23;20334;-86
2022/08/22 03:29:48;;;;;;;6.00;2.55;;;15.90;99.90;;;;;;6245352;23;20020;-87
2022/08/22 03:32:20;;;;;;;5.15;2.13;;;15.90;99.90;;;;;;6246718;23;20027;-87
2022/08/22 03:35:22;;;;;;;4.32;2.03;;;15.80;99.90;;;;;;6245366;23;20023;-86
2022/08/22 03:37:52;;;;;;;5.20;1.95;;;15.70;99.90;;;;;;6245500;23;20020;-85
2022/08/22 03:40:30;;;;;;;3.03;1.30;;;15.60;99.90;;;;;;6246810;23;20016;-85
2022/08/22 03:43:21;;;;;;;2.40;1.33;;;15.60;99.90;;;;;;6245250;23;20513;-85
2022/08/22 03:45:58;;;;;;;4.18;1.80;;;15.50;99.90;;;;;;6245300;23;20028;-86
2022/08/22 03:48:49;;;;;;;4.03;2.00;;;15.50;99.90;;;;;;6245097;23;20028;-87
2022/08/22 03:51:34;;;;;;;3.25;1.75;;;15.50;99.90;;;;;;6245155;23;20024;-86
2022/08/22 03:54:40;;;;;;;3.72;1.92;;;15.50;99.90;;;;;;6246740;23;20020;-86
2022/08/22 03:57:40;;;;;;;5.00;2.33;;;15.50;99.90;;;;;;6245255;23;20023;-85
2022/08/22 04:00:24;;;;;;;4.63;2.10;;;15.50;99.90;;;;;;6219850;23;20039;-86
2022/08/22 04:03:12;;;;;;;4.00;1.90;;;15.50;99.90;;;;;;6246705;23;20027;-84
2022/08/22 04:06:25;;;;;;;4.00;2.20;;;15.60;99.90;;;;;;6219732;23;20020;-86
2022/08/22 04:09:17;;;;;;;4.50;1.98;;;15.60;99.90;;;;;;6142563;23;20017;-86
2022/08/22 04:12:03;;;;;;;4.80;2.35;;;15.60;99.90;;;;;;6246671;22;20091;-86
2022/08/22 04:14:40;;;;;;;5.10;2.28;;;15.60;99.90;;;;;;6244994;23;20019;-86
2022/08/22 04:17:19;;;;;;;3.85;1.92;;;15.60;99.90;;;;;;6245044;23;20491;-85
2022/08/22 04:19:59;;;;;;;3.17;1.63;;;15.60;99.90;;;;;;6244938;23;20016;-87
2022/08/22 04:23:04;;;;;;;3.55;1.85;;;15.50;99.90;;;;;;6219670;23;20027;-87
2022/08/22 04:25:35;;;;;;;1.88;1.05;;;15.50;99.90;;;;;;6171067;22;20389;-86
2022/08/22 04:28:19;;;;;;;2.38;1.00;;;15.50;99.90;;;;;;6244491;23;20016;-85
2022/08/22 04:30:59;;;;;;;2.33;0.93;;;15.50;99.90;;;;;;6246202;23;20031;-88
2022/08/22 04:33:44;;;;;;;2.38;1.42;;;15.50;99.90;;;;;;6246005;22;20024;-86
2022/08/22 04:36:16;;;;;;;3.10;1.30;;;15.50;99.90;;;;;;6244964;23;20022;-86
2022/08/22 04:38:51;;;;;;;2.90;1.60;;;15.50;99.90;;;;;;6244881;23;20448;-85
2022/08/22 04:41:35;;;;;;;3.40;1.42;;;15.50;99.90;;;;;;6244815;23;20024;-86
2022/08/22 04:44:06;;;;;;;4.00;1.50;;;15.40;99.90;;;;;;6219795;23;20026;-86
2022/08/22 04:46:38;;;;;;;2.65;1.27;;;15.40;99.90;;;;;;6248202;23;20012;-85
2022/08/22 04:49:07;;;;;;;3.42;1.50;;;15.40;99.90;;;;;;6248030;23;20022;-86
2022/08/22 04:51:43;;;;;;;3.55;1.52;;;15.30;99.90;;;;;;6220297;23;20028;-86
2022/08/22 04:54:26;;;;;;;3.53;1.60;;;15.30;99.90;;;;;;6244483;23;20020;-87
2022/08/22 04:57:19;;;;;;;2.65;1.30;;;15.20;99.90;;;;;;6246085;23;20016;-85
2022/08/22 04:59:46;;;;;;;3.67;1.38;;;15.30;99.90;;;;;;6219207;23;20020;-87
2022/08/22 05:02:21;;;;;;;4.20;1.30;;;15.30;99.90;;;;;;6219107;23;20020;-87
2022/08/22 05:05:00;;;;;;;2.35;1.10;;;15.30;99.90;;;;;;6244588;23;20035;-86
2022/08/22 05:07:34;;;;;;;2.50;1.05;;;15.30;99.90;;;;;;6244231;23;20024;-86
2022/08/22 05:10:16;;;;;;;2.25;1.00;;;15.30;99.90;;;;;;6244086;23;20445;-87
2022/08/22 05:13:06;;;;;;;4.70;1.30;;;15.30;99.90;;;;;;6244294;23;20408;-88
2022/08/22 05:15:42;;;;;;;2.92;1.20;;;15.30;99.90;;;;;;6244423;23;20098;-91
2022/08/22 05:18:22;;;;;;;4.35;2.03;;;15.30;99.90;;;;;;6244260;23;20024;-86
2022/08/22 05:20:50;;;;;;;3.85;1.80;;;15.30;99.90;;;;;;6244417;23;20506;-86
2022/08/22 05:23:18;;;;;;;3.55;1.58;;;15.20;99.90;;;;;;6245931;23;20016;-86
2022/08/22 05:25:47;;;;;;;2.90;1.50;;;15.30;99.90;;;;;;6249199;23;20043;-86
2022/08/22 05:28:22;;;;;;;3.28;1.67;;;15.20;99.90;;;;;;6246526;23;20020;-86
2022/08/22 05:30:48;;;;;;;3.88;1.65;;;15.20;99.90;;;;;;6244587;23;20016;-85
2022/08/22 05:33:14;;;;;;;2.85;1.42;;;15.20;99.90;;;;;;6218868;23;20024;-86
2022/08/22 05:35:44;;;;;;;5.15;2.22;;;15.20;99.90;;;;;;6244308;23;20016;-86
2022/08/22 05:38:14;;;;;;;3.70;2.10;;;15.20;99.90;;;;;;6244223;23;20020;-85
2022/08/22 05:40:41;;;;;;;5.75;1.95;;;15.30;99.90;;;;;;6245536;23;20042;-86
2022/08/22 05:43:11;;;;;;;4.15;2.00;;;15.30;99.90;;;;;;6244183;23;20012;-85
2022/08/22 05:45:39;;;;;;;5.60;2.35;;;15.40;99.90;;;;;;6244283;23;20020;-89
2022/08/22 05:48:11;;;;;;;3.28;1.48;;;15.40;99.90;;;;;;6245725;23;20023;-86
2022/08/22 05:50:44;;;;;;;4.50;1.77;;;15.40;99.90;;;;;;6245537;23;20016;-87
2022/08/22 05:53:23;;;;;;;6.07;1.90;;;15.50;99.90;;;;;;6244056;23;20039;-87
2022/08/22 05:56:01;;;;;;;4.63;2.17;;;15.50;99.90;;;;;;6245744;22;20028;-88
2022/08/22 05:58:42;;;;;;;3.63;1.63;;;15.50;99.90;;;;;;6244007;23;20354;-87
2022/08/22 06:01:21;;;;;;;4.30;2.03;;;15.60;99.90;;;;;;6245601;23;20043;-87
2022/08/22 06:04:19;;;;;;;3.75;1.92;;;15.70;99.90;;;;;;6245742;23;20091;-87
2022/08/22 06:07:17;;;;;;;3.40;1.60;;;15.70;99.90;;;;;;6218454;23;20099;-88
2022/08/22 06:09:46;;;;;;;;;;;15.80;99.90;;;;;;6244449;23;20090;-87
2022/08/22 06:12:21;;;;;;;5.60;2.00;;;15.90;99.90;;;;;;6245695;22;19916;-86
2022/08/22 06:14:52;;;;;;;4.15;1.83;;;16.00;99.90;;;;;;6218668;23;20461;-85
2022/08/22 06:17:33;;;;;;;4.72;2.05;;;16.00;99.90;;;;;;6244224;23;20076;-86
2022/08/22 06:19:59;;;;;;;5.50;2.97;;;16.10;99.90;;;;;;6243910;23;20339;-86
2022/08/22 06:22:33;;;;;;;5.45;2.90;;;16.10;99.90;;;;;;6244073;23;20028;-86
2022/08/22 06:25:17;;;;;;;5.72;3.13;;;16.10;99.90;;;;;;6244042;23;20416;-86
2022/08/22 06:27:46;;;;;;;6.72;2.95;;;16.20;99.90;;;;;;6243823;23;20353;-88
2022/08/22 06:30:15;;;;;;;6.05;2.80;;;16.20;99.90;;;;;;6243981;23;20058;-86
2022/08/22 06:32:50;;;;;;;6.05;3.13;;;16.30;99.90;;;;;;6243873;23;20024;-87
2022/08/22 06:38:33;;;;;;;6.35;2.60;;;16.50;99.90;;;;;;6243810;23;20031;-86
2022/08/22 06:41:06;;;;;;;7.35;3.28;;;16.70;99.90;;;;;;6245465;23;20095;-87
2022/08/22 06:43:41;;;;;;;5.57;2.80;;;16.80;99.90;;;;;;6243975;23;20027;-86
2022/08/22 06:46:08;;;;;;;6.80;2.65;;;16.90;99.90;;;;;;6244076;23;20497;-87
2022/08/22 06:48:36;;;;;;;5.28;2.65;;;17.00;99.90;;;;;;6245361;23;20349;-86
2022/08/22 06:51:05;;;;;;;6.32;2.90;;;17.10;99.90;;;;;;6243944;23;20433;-85
2022/08/22 06:53:40;;;;;;;6.28;2.92;;;17.20;99.90;;;;;;6246960;23;20038;-85
2022/08/22 06:56:06;;;;;;;7.35;2.85;;;17.30;99.90;;;;;;6245613;23;20066;-88
2022/08/22 06:58:34;;;;;;;;;;;17.20;99.90;;;;;;6246212;23;20350;-85
2022/08/22 07:01:06;;;;;;;5.50;2.88;;;17.30;99.90;;;;;;6247201;22;19916;-85
2022/08/22 07:03:35;;;;;;;6.90;3.10;;;17.30;99.90;;;;;;6220436;23;20434;-85
2022/08/22 07:06:02;;;;;;;6.78;3.00;;;17.30;99.90;;;;;;6245595;23;20572;-85
2022/08/22 07:08:28;;;;;;;;;;;17.30;99.90;;;;;;6245602;23;20024;-86
2022/08/22 07:11:07;;;;;;;7.18;3.45;;;17.40;99.90;;;;;;6247210;22;20035;-85
2022/08/22 07:13:36;;;;;;;7.88;2.95;;;17.40;99.90;;;;;;6245684;23;20020;-86
2022/08/22 07:16:06;;;;;;;6.90;2.95;;;17.40;99.90;;;;;;6245355;23;20043;-87
2022/08/22 07:18:32;;;;;;;7.03;2.92;;;17.40;99.90;;;;;;6245461;23;20059;-86
2022/08/22 07:21:03;;;;;;;6.13;3.13;;;17.50;99.90;;;;;;6245410;23;20028;-86
2022/08/22 07:23:35;;;;;;;5.47;2.10;;;17.50;99.90;;;;;;6247173;23;20027;-86
2022/08/22 07:26:03;;;;;;;5.95;2.83;;;17.60;99.90;;;;;;6245403;23;20012;-86
2022/08/22 07:28:49;;;;;;;5.90;2.47;;;17.70;99.90;;;;;;6245442;23;20035;-86
2022/08/22 07:31:43;;;;;;;5.25;2.63;;;17.70;99.90;;;;;;6246889;23;20024;-86
2022/08/22 07:34:27;;;;;;;5.75;2.88;;;17.70;99.90;;;;;;6248206;23;20028;-86
2022/08/22 07:37:01;;;;;;;7.95;3.45;;;17.90;99.90;;;;;;6247975;23;20020;-86
2022/08/22 07:39:43;;;;;;;6.70;2.53;;;17.90;99.90;;;;;;6248676;23;20087;-85
2022/08/22 07:42:23;;;;;;;7.05;2.78;;;17.90;99.90;;;;;;6243647;23;20024;-86
2022/08/22 07:45:06;;;;;;;4.35;2.40;;;18.00;99.90;;;;;;6246996;23;20020;-86
2022/08/22 07:47:47;;;;;;;5.53;2.67;;;18.00;99.90;;;;;;6246617;23;20377;-86
2022/08/22 07:50:19;;;;;;;6.25;3.10;;;18.10;99.90;;;;;;6244075;23;20020;-86
2022/08/22 07:52:45;;;;;;;7.30;3.22;;;18.10;99.90;;;;;;6244735;23;20020;-86
2022/08/22 07:55:17;;;;;;;5.15;2.63;;;18.10;99.90;;;;;;6245236;23;20027;-86
2022/08/22 07:57:48;;;;;;;6.22;2.58;;;18.10;99.90;;;;;;6246953;23;20453;-87
2022/08/22 08:00:18;;;;;;;6.18;2.40;;;18.20;99.90;;;;;;6245088;23;20349;-86
2022/08/22 08:02:52;;;;;;;5.07;2.72;;;18.20;99.90;;;;;;6245049;23;20020;-92
2022/08/22 08:05:22;;;;;;;5.47;2.72;;;18.30;99.90;;;;;;6246334;23;20468;-87
2022/08/22 08:07:52;;;;;;;4.97;2.13;;;18.30;99.90;;;;;;6245190;23;20405;-88
2022/08/22 08:10:22;;;;;;;6.65;2.25;;;18.40;99.90;;;;;;6245785;23;20099;-86
2022/08/22 08:12:52;;;;;;;4.32;2.17;;;18.50;99.90;;;;;;6248518;23;20016;-85
2022/08/22 08:15:21;;;;;;;5.25;2.10;;;18.50;99.90;;;;;;6249964;23;20469;-87
2022/08/22 08:17:53;;;;;;;4.25;1.88;;;18.50;99.90;;;;;;6245507;23;20016;-84
2022/08/22 08:20:22;;;;;;;4.18;1.70;;;18.60;99.90;;;;;;6245000;23;20039;-84
2022/08/22 08:22:49;;;;;;;6.50;1.38;;;18.60;99.90;;;;;;6244862;23;20020;-84
2022/08/22 08:25:21;;;;;;;3.20;1.48;;;18.70;99.90;;;;;;6245363;23;20060;-86
2022/08/22 08:31:06;;;;;;;4.53;1.20;;;18.70;99.90;;;;;;6211613;23;20346;-83
2022/08/22 08:33:34;;;;;;;3.85;0.90;;;18.80;99.90;;;;;;6244624;23;20012;-85
2022/08/22 08:36:04;;;;;;;1.77;0.80;;;18.80;99.90;;;;;;6244789;23;20020;-84
2022/08/22 08:38:51;;;;;;;6.18;1.10;;;18.80;99.90;;;;;;6244587;23;20020;-91
2022/08/22 08:41:23;;;;;;;3.92;1.08;;;18.90;99.90;;;;;;6244717;23;20020;-88
2022/08/22 08:44:03;;;;;;;2.55;1.08;;;18.90;99.90;;;;;;6220168;23;20058;-85
2022/08/22 08:46:49;;;;;;;3.75;1.13;;;18.90;99.90;;;;;;6244473;23;20031;-86
2022/08/22 08:49:23;;;;;;;2.55;0.80;;;18.90;99.90;;;;;;6244923;23;20070;-87
2022/08/22 08:51:59;;;;;;;4.15;1.20;;;18.90;99.90;;;;;;6244533;23;20023;-85
2022/08/22 08:55:09;;;;;;;3.72;1.08;;;19.00;99.90;;;;;;6246005;23;20106;-88
2022/08/22 08:57:50;;;;;;;5.03;1.60;;;18.90;99.90;;;;;;6239901;23;20024;-83
2022/08/22 09:00:25;;;;;;;3.58;1.15;;;19.00;99.90;;;;;;6246189;22;20035;-84
2022/08/22 09:02:54;;;;;;;3.33;1.30;;;19.00;99.90;;;;;;6244422;23;20353;-85
2022/08/22 09:05:55;;;;;;;3.45;1.27;;;19.00;99.90;;;;;;6219322;23;20087;-83
2022/08/22 09:08:35;;;;;;;6.18;1.33;;;19.10;99.90;;;;;;6244215;23;20051;-83
2022/08/22 09:11:46;;;;;;;3.35;1.50;;;19.20;99.90;;;;;;6244539;23;20547;-86
2022/08/22 09:14:26;;;;;;;3.95;1.45;;;19.20;99.90;;;;;;6244453;23;20039;-86
2022/08/22 09:17:10;;;;;;;3.33;1.33;;;19.30;99.90;;;;;;6244166;23;20024;-86
2022/08/22 09:20:13;;;;;;;3.30;1.20;;;19.30;99.90;;;;;;6244259;23;20113;-85
2022/08/22 09:23:12;;;;;;;3.78;1.42;;;19.40;99.90;;;;;;6219115;23;20111;-85
2022/08/22 09:25:49;;;;;;;5.05;1.20;;;19.40;99.90;;;;;;6243478;23;20101;-85
2022/08/22 09:28:38;;;;;;;3.55;1.20;;;19.50;99.90;;;;;;6242207;23;20019;-86
2022/08/22 09:31:07;;;;;;;2.90;1.00;;;19.60;99.90;;;;;;6244247;23;20054;-85
2022/08/22 09:33:44;;;;;;;3.58;1.25;;;19.70;99.90;;;;;;6243847;23;20020;-84
2022/08/22 09:36:45;;;;;;;3.05;1.13;;;19.80;99.90;;;;;;6242672;23;20016;-85
2022/08/22 09:39:23;;;;;;;3.97;1.27;;;19.80;99.90;;;;;;6196279;23;20024;-85
2022/08/22 09:42:30;;;;;;;2.08;0.80;;;19.90;99.90;;;;;;6219080;23;20032;-85
2022/08/22 09:45:51;;;;;;;4.90;1.50;;;19.90;99.90;;;;;;6228084;23;20465;-85
2022/08/22 09:48:37;;;;;;;5.60;1.20;;;19.90;99.90;;;;;;6194281;23;20020;-85
2022/08/22 09:51:17;;;;;;;4.32;1.20;;;20.00;99.90;;;;;;6245705;23;20042;-85
2022/08/22 09:54:03;;;;;;;3.90;1.20;;;20.00;99.90;;;;;;6244174;23;20346;-85
2022/08/22 09:56:41;;;;;;;2.78;1.27;;;20.10;99.90;;;;;;6244118;23;20353;-85
2022/08/22 09:59:21;;;;;;;4.40;1.45;;;20.10;99.90;;;;;;6243723;23;20343;-86
2022/08/22 10:01:58;;;;;;;3.80;1.08;;;20.10;99.90;;;;;;6218350;23;20051;-84
2022/08/22 10:04:39;;;;;;;3.22;1.30;;;20.10;99.90;;;;;;6243529;23;20078;-85
2022/08/22 10:07:30;;;;;;;5.22;1.33;;;20.20;99.90;;;;;;6218370;23;20047;-89
2022/08/22 10:10:03;;;;;;;2.58;1.20;;;20.20;99.90;;;;;;6244129;23;20028;-88
2022/08/22 10:12:35;;;;;;;4.55;1.00;;;20.20;99.90;;;;;;6245551;23;20031;-84
2022/08/22 10:15:10;;;;;;;3.17;0.90;;;20.20;99.90;;;;;;6244289;23;20012;-86
2022/08/22 10:17:49;;;;;;;5.45;1.45;;;20.20;99.90;;;;;;6244575;23;20028;-85
2022/08/22 10:20:31;;;;;;;3.85;1.35;;;20.20;99.90;;;;;;6244346;23;20047;-89
2022/08/22 10:23:32;;;;;;;1.83;0.90;;;20.30;99.90;;;;;;6243958;23;20024;-84
2022/08/22 10:26:33;;;;;;;5.55;1.98;;;20.40;99.90;;;;;;6245968;22;20016;-91
2022/08/22 10:29:11;;;;;;;2.25;1.10;;;20.50;99.90;;;;;;6239338;23;20054;-86
2022/08/22 10:31:50;;;;;;;3.80;1.00;;;20.60;99.90;;;;;;6220814;23;20016;-84
2022/08/22 10:34:20;;;;;;;2.55;1.10;;;20.60;99.90;;;;;;6247667;23;20019;-86
2022/08/22 10:37:08;;;;;;;3.63;0.93;;;20.70;99.90;;;;;;6246020;23;20024;-90
2022/08/22 10:39:51;;;;;;;2.92;0.80;;;20.80;99.90;;;;;;6245805;23;20023;-84
2022/08/22 10:42:28;;;;;;;2.50;0.93;;;20.90;99.90;;;;;;6247627;23;20048;-88
2022/08/22 10:45:21;;;;;;;3.47;0.80;;;21.00;99.90;;;;;;6247440;23;20136;-88
2022/08/22 10:47:53;;;;;;;2.85;1.50;;;21.10;99.90;;;;;;6245705;23;20443;-86
2022/08/22 10:50:30;;;;;;;4.78;1.10;;;21.20;99.90;;;;;;6220587;23;20024;-83
2022/08/22 10:56:14;;;;;;;2.35;1.08;;;21.40;99.90;;;;;;6247356;23;20028;-85
2022/08/22 10:58:55;;;;;;;2.95;0.88;;;21.50;99.90;;;;;;6245812;23;20385;-85
2022/08/22 11:01:26;;;;;;;3.25;0.90;;;21.70;99.90;;;;;;6246042;23;20020;-86
2022/08/22 11:03:58;;;;;;;3.03;1.10;;;21.70;99.90;;;;;;6247455;23;20453;-83
2022/08/22 11:06:41;;;;;;;2.28;1.00;;;21.80;99.90;;;;;;6222197;23;20488;-85
2022/08/22 11:09:24;;;;;;;3.67;0.88;;;21.90;99.90;;;;;;6248756;23;20018;-85
2022/08/22 11:12:01;;;;;;;2.72;0.95;;;22.00;99.90;;;;;;6245483;23;20024;-83
2022/08/22 11:14:36;;;;;;;1.42;0.70;;;22.20;99.90;;;;;;6247022;23;20453;-85
2022/08/22 11:17:17;;;;;;;2.22;0.88;;;22.30;99.90;;;;;;6220328;23;20026;-87
2022/08/22 11:19:53;;;;;;;2.35;0.80;;;22.30;99.90;;;;;;6245362;23;20095;-84
2022/08/22 11:22:32;;;;;;;2.85;1.05;;;22.30;99.90;;;;;;6246927;23;20468;-87
2022/08/22 11:25:27;;;;;;;4.03;0.82;;;22.30;99.90;;;;;;6245402;23;20092;-88
2022/08/22 11:28:21;;;;;;;2.58;0.90;;;22.30;99.90;;;;;;6242065;23;20103;-86
2022/08/22 11:31:10;;;;;;;3.03;0.80;;;22.20;99.90;;;;;;6245047;23;20012;-85
2022/08/22 11:33:55;;;;;;;2.03;0.70;;;22.20;99.90;;;;;;6245306;23;20403;-86
2022/08/22 11:36:34;;;;;;;4.53;0.80;;;22.10;99.90;;;;;;6246927;23;20331;-86
2022/08/22 11:39:23;;;;;;;2.50;0.90;;;22.00;99.90;;;;;;6245268;23;20056;-85
2022/08/22 11:42:12;;;;;;;3.58;1.23;;;22.00;99.90;;;;;;6247296;23;20012;-85
2022/08/22 11:44:53;;;;;;;3.35;0.90;;;22.00;99.90;;;;;;6249475;23;20103;-86
2022/08/22 11:47:22;;;;;;;1.98;0.90;;;22.10;99.90;;;;;;6246013;23;20099;-87
2022/08/22 11:49:54;;;;;;;2.80;0.80;;;22.30;99.90;;;;;;6245353;23;20020;-86
2022/08/22 11:52:46;;;;;;;1.70;0.70;;;22.50;99.90;;;;;;6246908;23;20125;-87
2022/08/22 11:55:15;;;;;;;1.90;0.77;;;22.40;99.90;;;;;;6246983;22;20016;-86
2022/08/22 11:58:22;;;;;;;3.22;0.90;;;22.40;99.90;;;;;;6245476;23;20103;-85
2022/08/22 12:01:00;;;;;;;2.05;0.80;;;22.40;99.90;;;;;;6218960;23;20438;-85
2022/08/22 12:03:44;;;;;;;3.88;0.90;;;22.30;99.90;;;;;;6245396;23;20024;-86
2022/08/22 12:06:37;;;;;;;1.52;0.65;;;22.40;99.90;;;;;;6219735;23;20062;-85
2022/08/22 12:09:18;;;;;;;2.70;0.90;;;22.60;99.90;;;;;;6243580;23;20035;-87
2022/08/22 12:12:15;;;;;;;2.35;0.73;;;22.80;99.90;;;;;;6219741;23;20020;-85
2022/08/22 12:15:06;;;;;;;4.13;0.73;;;23.00;99.90;;;;;;6219868;23;20024;-86
2022/08/22 12:18:06;;;;;;;2.88;0.90;;;23.20;99.90;;;;;;6244831;23;20248;-85
2022/08/22 12:20:57;;;;;;;2.10;0.60;;;23.40;99.90;;;;;;6219607;23;20017;-86
2022/08/22 12:23:39;;;;;;;3.67;0.88;;;23.40;99.90;;;;;;6246724;23;20492;-88
2022/08/22 12:26:34;;;;;;;1.80;0.70;;;23.60;99.90;;;;;;6244732;23;20016;-85
2022/08/22 12:29:37;;;;;;;1.83;0.70;;;23.80;99.90;;;;;;6244818;23;20484;-88
2022/08/22 12:32:21;;;;;;;3.45;0.95;;;23.90;99.90;;;;;;6246308;23;20020;-86
2022/08/22 12:35:18;;;;;;;2.60;0.77;;;24.00;99.90;;;;;;6220182;23;20020;-87
2022/08/22 12:37:44;;;;;;;2.73;0.93;;;24.10;99.90;;;;;;6174194;23;20024;-88
2022/08/22 12:40:22;;;;;;;2.50;0.80;;;24.10;99.60;;;;;;6219598;23;20024;-85
2022/08/22 12:43:04;;;;;;;3.05;0.75;;;24.00;98.80;;;;;;6246302;23;20024;-84
2022/08/22 12:45:49;;;;;;;3.72;0.65;;;23.90;98.70;;;;;;6244736;23;20353;-84
2022/08/22 12:48:36;;;;;;;3.58;0.80;;;23.90;99.00;;;;;;6219582;23;20020;-84
2022/08/22 12:51:39;;;;;;;1.70;0.60;;;23.70;98.80;;;;;;6218879;23;20420;-85
2022/08/22 12:54:22;;;;;;;2.28;0.50;;;23.70;98.80;;;;;;6246218;23;20100;-84
2022/08/22 12:57:05;;;;;;;2.80;0.80;;;23.60;98.60;;;;;;6244843;23;20051;-84
2022/08/22 12:59:35;;;;;;;3.08;0.90;;;23.40;98.50;;;;;;6245011;23;20020;-89
2022/08/22 13:02:13;;;;;;;3.33;1.02;;;23.30;98.80;;;;;;6219541;23;20020;-87
2022/08/22 13:04:48;;;;;;;4.38;0.70;;;23.20;98.70;;;;;;6219465;23;20024;-90
2022/08/22 13:07:32;;;;;;;2.08;0.75;;;23.10;98.80;;;;;;6244296;23;20122;-87
2022/08/22 13:10:04;;;;;;;2.22;0.63;;;23.00;98.50;;;;;;6244584;23;20024;-87
2022/08/22 13:12:46;;;;;;;2.50;0.90;;;23.00;98.50;;;;;;6246088;23;20019;-89
2022/08/22 13:15:28;;;;;;;2.45;0.90;;;22.90;98.60;;;;;;6246113;23;20020;-85
2022/08/22 13:17:55;;;;;;;1.85;0.75;;;22.90;98.40;;;;;;6219161;23;20026;-86
2022/08/22 13:20:29;;;;;;;1.23;0.50;;;23.00;98.90;;;;;;6243347;23;20016;-88
2022/08/22 13:22:57;;;;;;;2.08;0.60;;;23.10;98.90;;;;;;6218317;23;20064;-86
2022/08/22 13:25:26;;;;;;;3.95;1.50;;;23.30;99.00;;;;;;6244022;23;20326;-85
2022/08/22 13:27:56;;;;;;;2.30;1.13;;;23.40;98.70;;;;;;6244114;23;20466;-85
2022/08/22 13:30:35;;;;;;;4.32;0.88;;;23.60;98.80;;;;;;6244306;23;20020;-86
2022/08/22 13:33:09;;;;;;;1.58;0.88;;;23.70;98.40;;;;;;6219143;23;20058;-87
2022/08/22 13:36:04;;;;;;;2.35;0.82;;;23.70;97.70;;;;;;6245851;23;20099;-85
2022/08/22 13:38:48;;;;;;;2.42;0.63;;;23.80;97.80;;;;;;6245850;22;20020;-86
2022/08/22 13:41:28;;;;;;;2.95;0.70;;;23.80;98.00;;;;;;6244691;23;20024;-87
2022/08/22 13:44:05;;;;;;;2.53;0.80;;;23.80;97.60;;;;;;6245893;23;20095;-86
2022/08/22 13:46:33;;;;;;;4.03;0.70;;;23.70;97.30;;;;;;6244235;23;20099;-85
2022/08/22 13:49:04;;;;;;;2.35;0.70;;;23.70;97.40;;;;;;6244117;23;20055;-86
2022/08/22 13:51:47;;;;;;;1.98;0.60;;;23.80;97.40;;;;;;6245886;23;20074;-85
2022/08/22 13:54:37;;;;;;;2.53;0.90;;;23.90;97.00;;;;;;6244361;23;20020;-88
2022/08/22 13:57:21;;;;;;;2.50;0.73;;;24.00;96.80;;;;;;6245807;23;20161;-87
2022/08/22 13:59:57;;;;;;;4.90;0.90;;;24.20;96.40;;;;;;6218815;23;20020;-85
2022/08/22 14:05:03;;;;;;;3.22;0.98;;;24.30;96.40;;;;;;6240111;22;20028;-86
2022/08/22 14:07:40;;;;;;;1.42;0.50;;;24.30;96.40;;;;;;6246273;23;20027;-87
2022/08/22 14:10:11;;;;;;;;;;;24.20;96.20;;;;;;6248492;23;20020;-86
2022/08/22 14:12:47;;;;;;;3.22;1.00;;;24.20;95.70;;;;;;6246191;23;20344;-85